• Join FlightAware (Why Join?)
  • Login
  • US Flag 
05:23AM EDT


 

Airport Tracker/Info


-or-


 

Live Flight TrackerFlight Track Log ✈ KAP46 ✈ 22-Jun-2013 ✈ KALB - KMSS

Flight Track Log - Related Links

Times and Time Zones

All times are in EDT time to prevent confusion due to time zone crossing. See the KAP46 flight status page for this flight to view local times or setup timezone preferences in your user account.

Time Position Orientation Groundspeed Altitude Reporting Facility
EDT Latitude Longitude Course Direction KTS MPH feet Rate Location/Type
10:47AM 42.7319 -73.8081 264° West 108 124 1,000  Level Boston Center
10:48AM 42.7294 -73.8392 264° West 130 150 1,800 540 Climbing Boston Center
10:49AM 42.7647 -73.8400 359° North 128 147 2,400 540 Climbing Boston Center
10:50AM 42.7981 -73.8464 352° North 125 144 3,000 540 Climbing Boston Center
10:51AM 42.8356 -73.8558 350° North 134 154 3,600 540 Climbing Boston Center
10:52AM 42.8708 -73.8678 346° North 130 150 4,100 540 Climbing Boston Center
10:53AM 42.9061 -73.8717 355° North 130 150 4,800 540 Climbing Boston Center
10:54AM 42.9394 -73.8864 342° North 132 152 5,300 480 Climbing Boston Center
10:55AM 42.9767 -73.8903 356° North 134 154 5,800 540 Climbing Boston Center
10:56AM 43.0164 -73.8969 353° North 132 152 6,400 540 Climbing Boston Center
10:57AM 43.0536 -73.9064 349° North 137 158 6,900 300 Climbing Boston Center
10:58AM 43.0931 -73.9186 347° North 154 177 7,100 60 Climbing Boston Center
10:59AM 43.1411 -73.9225 357° North 175 201 7,100 -180 Level Boston Center
11:00AM 43.1681 -73.9261 354° North 177 204 6,900 -180 Descending Boston Center
11:01AM 43.2139 -73.9328 354° North 178 205 6,900  Level Boston Center
11:02AM 43.2658 -73.9514 345° North 160 184 7,000  Climbing Boston Center
11:03AM 43.3072 -73.9636 348° North 160 184 7,000  Level Boston Center
11:04AM 43.3592 -73.9678 357° North 160 184 7,100 -60 Climbing Boston Center
11:05AM 43.4008 -73.9775 350° North 160 184 6,900 -60 Descending Boston Center
11:06AM 43.4444 -73.9872 351° North 160 184 7,000  Climbing Boston Center
11:07AM 43.4881 -73.9997 348° North 160 184 7,000  Level Boston Center
11:08AM 43.5314 -74.0236 338° Northwest 160 184 7,000  Level Boston Center
11:09AM 43.5728 -74.0450 339° North 160 184 7,000  Level Boston Center
11:10AM 43.6142 -74.0661 340° North 160 184 7,000  Level Boston Center
11:11AM 43.6556 -74.0900 337° Northwest 160 184 7,000  Level Boston Center
11:12AM 43.7033 -74.1117 342° North 160 184 7,000  Level Boston Center
11:13AM 43.7425 -74.1328 339° North 155 178 7,000 -60 Level Boston Center
11:14AM 43.7858 -74.1569 338° Northwest 155 178 6,900  Descending Boston Center
11:15AM 43.8208 -74.1867 329° Northwest 155 178 7,000  Climbing Boston Center
11:16AM 43.8622 -74.2139 335° Northwest 155 178 7,000  Level Boston Center
11:17AM 43.9014 -74.2408 334° Northwest 155 178 7,000 -60 Level Boston Center
11:18AM 43.9406 -74.2594 341° North 155 178 6,900  Descending Boston Center
11:19AM 43.9819 -74.2867 335° Northwest 155 178 7,000  Climbing Boston Center
11:20AM 44.0231 -74.3111 337° Northwest 155 178 6,900 -60 Descending Boston Center
11:21AM 44.0625 -74.3325 339° North 155 178 6,900  Level Boston Center
11:22AM 44.0994 -74.3539 337° Northwest 155 178 7,000  Climbing Boston Center
11:23AM 44.1408 -74.3756 339° North 155 178 7,000  Level Boston Center
11:24AM 44.1800 -74.4000 336° Northwest 155 178 7,000  Level Boston Center
11:25AM 44.2214 -74.4244 337° Northwest 155 178 7,000  Level Boston Center
11:26AM 44.2606 -74.4489 336° Northwest 155 178 7,000  Level Boston Center
11:27AM 44.2997 -74.4706 338° Northwest 155 178 7,000  Level Boston Center
11:28AM 44.3408 -74.4922 339° North 155 178 7,000  Level Boston Center
11:29AM 44.3800 -74.5169 336° Northwest 155 178 7,000  Level Boston Center
11:30AM 44.4194 -74.5358 341° North 155 178 7,000  Level Boston Center
11:31AM 44.4606 -74.5633 334° Northwest 155 178 7,000  Level Boston Center
11:32AM 44.5017 -74.5881 337° Northwest 155 178 7,000  Level Boston Center
11:33AM 44.5492 -74.6161 337° Northwest 155 178 7,000 -240 Level Boston Center
11:34AM 44.5903 -74.6408 337° Northwest 155 178 6,600 -420 Descending Boston Center
11:35AM 44.6358 -74.6631 341° North 165 190 6,200 -600 Descending Boston Center
11:36AM 44.6853 -74.6911 338° Northwest 171 197 5,500 -720 Descending Boston Center